MiSS Linda Lee — WDE5415 — position and weather

sailwx.info

Track history (hours):
 
Tides and Currents Weather Stations Pressure Air Temp Water Temp Dewpoint Dewpoint Depression Visibility Wind Speed Wind Dir Waves Ship Positions

MiSS Linda Lee

Owner: Starfleet Marine Transportation, Inc., Mount Pleasant, SC. More information available from US FCC via Universal Licensing System and Coast Guard Vessel Documentation Center.

Last reported at 2018-Apr-25 22:57 UTC. Time now 2018-Apr-26 11:06 UTC.
Position N 29°49' W 093°20'.

Length 45 m; draft 1.5 m.

Type: Passenger vessel. MMSI: 367366390.

Date/timePositionNaut miles runAvg speedWind from/ knotsBaromVisibWave heightAir tempDewpointWater temp
2018-Apr-25 22:57N 29°49' W 093°20'28 2.0
2018-Apr-25 08:49N 29°33' W 092°54'3 5.1
2018-Apr-25 08:15N 29°36' W 092°54'2 6.0
2018-Apr-25 07:53N 29°36' W 092°57'714.6
2018-Apr-25 07:24N 29°38' W 093°05'614.3
2018-Apr-25 06:59N 29°40' W 093°11'714.5
2018-Apr-25 06:30N 29°42' W 093°19'510.7
2018-Apr-25 06:00N 29°47' W 093°21'2 4.3
2018-Apr-25 05:28N 29°49' W 093°20'0 0.0
2018-Apr-25 04:55N 29°49' W 093°20'0 0.0
2018-Apr-25 04:25N 29°49' W 093°20'0 0.1
2018-Apr-25 03:58N 29°49' W 093°20'0 0.0
2018-Apr-25 03:28N 29°49' W 093°20'0 0.0
2018-Apr-25 02:58N 29°49' W 093°20'1 3.0
2018-Apr-25 02:30N 29°48' W 093°20'1 1.3
2018-Apr-25 01:56N 29°48' W 093°20'1 0.1
2018-Apr-24 13:43N 29°48' W 093°21'1 5.0
2018-Apr-24 13:25N 29°47' W 093°21'11 2.2
2018-Apr-24 08:25N 29°36' W 093°25'4 6.6
2018-Apr-24 07:45N 29°40' W 093°22'12 0.6
2018-Apr-23 12:05N 29°30' W 093°30'314.6
2018-Apr-23 11:52N 29°33' W 093°28'614.8
2018-Apr-23 11:28N 29°38' W 093°25'914.2
2018-Apr-23 10:51N 29°46' W 093°21'3 7.9
2018-Apr-23 10:30N 29°48' W 093°21'1 2.1
2018-Apr-23 10:00N 29°49' W 093°20'0 0.3
2018-Apr-23 09:29N 29°49' W 093°20'0 0.2
2018-Apr-23 09:00N 29°49' W 093°20'0 0.0
2018-Apr-23 08:30N 29°49' W 093°20'5 0.1
2018-Apr-21 11:23N 29°45' W 093°21'4 0.1
2018-Apr-20 02:54N 29°49' W 093°21'13 1.1
2018-Apr-19 14:32N 29°38' W 093°30'115.6
2018-Apr-19 14:28N 29°38' W 093°31'815.8
2018-Apr-19 13:59N 29°34' W 093°38'815.6
2018-Apr-19 13:29N 29°29' W 093°45'13 0.6
2018-Apr-18 17:16N 29°29' W 093°31'42 1.5
2018-Apr-17 13:12N 29°08' W 094°12'0 0.0
2018-Apr-17 13:00N 29°08' W 094°12'0 0.0
2018-Apr-17 10:06N 29°08' W 094°12'0 0.0
2018-Apr-17 09:26N 29°08' W 094°12'0 0.0
2018-Apr-17 08:59N 29°08' W 094°12'0 0.3
2018-Apr-17 08:28N 29°08' W 094°12'0 0.2
2018-Apr-17 07:45N 29°08' W 094°12'0 0.0
2018-Apr-17 07:27N 29°08' W 094°12'0 0.0
2018-Apr-17 06:51N 29°08' W 094°12'0 0.0
2018-Apr-17 06:30N 29°08' W 094°12'0 0.0
2018-Apr-17 06:00N 29°08' W 094°12'0 0.2
2018-Apr-17 05:18N 29°08' W 094°12'412.1
2018-Apr-17 05:00N 29°09' W 094°16'30 7.0
2018-Apr-17 00:44N 29°25' W 093°47'314.2
2018-Apr-17 00:30N 29°27' W 093°44'714.1
2018-Apr-17 00:00N 29°32' W 093°38'22 1.0
2018-Apr-16 01:51N 29°48' W 093°21'1 1.0
2018-Apr-16 00:39N 29°49' W 093°20'1 4.4
2018-Apr-16 00:30N 29°49' W 093°21'  
Track history (hours):
 
Tides and Currents Weather Stations Pressure Air Temp Water Temp Dewpoint Dewpoint Depression Visibility Wind Speed Wind Dir Waves Ship Positions

MiSS Linda Lee

Owner: Starfleet Marine Transportation, Inc., Mount Pleasant, SC. More information available from US FCC via Universal Licensing System and Coast Guard Vessel Documentation Center.

Last reported at 2018-Apr-25 22:57 UTC. Time now 2018-Apr-26 11:06 UTC.
Position N 29°49' W 093°20'.

Length 45 m; draft 1.5 m.

Type: Passenger vessel. MMSI: 367366390.

Date/timePositionNaut miles runAvg speedWind from/ knotsBaromVisibWave heightAir tempDewpointWater temp
2018-Apr-25 22:57N 29°49' W 093°20'28 2.0
2018-Apr-25 08:49N 29°33' W 092°54'3 5.1
2018-Apr-25 08:15N 29°36' W 092°54'2 6.0
2018-Apr-25 07:53N 29°36' W 092°57'714.6
2018-Apr-25 07:24N 29°38' W 093°05'614.3
2018-Apr-25 06:59N 29°40' W 093°11'714.5
2018-Apr-25 06:30N 29°42' W 093°19'510.7
2018-Apr-25 06:00N 29°47' W 093°21'2 4.3
2018-Apr-25 05:28N 29°49' W 093°20'0 0.0
2018-Apr-25 04:55N 29°49' W 093°20'0 0.0
2018-Apr-25 04:25N 29°49' W 093°20'0 0.1
2018-Apr-25 03:58N 29°49' W 093°20'0 0.0
2018-Apr-25 03:28N 29°49' W 093°20'0 0.0
2018-Apr-25 02:58N 29°49' W 093°20'1 3.0
2018-Apr-25 02:30N 29°48' W 093°20'1 1.3
2018-Apr-25 01:56N 29°48' W 093°20'1 0.1
2018-Apr-24 13:43N 29°48' W 093°21'1 5.0
2018-Apr-24 13:25N 29°47' W 093°21'11 2.2
2018-Apr-24 08:25N 29°36' W 093°25'4 6.6
2018-Apr-24 07:45N 29°40' W 093°22'12 0.6
2018-Apr-23 12:05N 29°30' W 093°30'314.6
2018-Apr-23 11:52N 29°33' W 093°28'614.8
2018-Apr-23 11:28N 29°38' W 093°25'914.2
2018-Apr-23 10:51N 29°46' W 093°21'3 7.9
2018-Apr-23 10:30N 29°48' W 093°21'1 2.1
2018-Apr-23 10:00N 29°49' W 093°20'0 0.3
2018-Apr-23 09:29N 29°49' W 093°20'0 0.2
2018-Apr-23 09:00N 29°49' W 093°20'0 0.0
2018-Apr-23 08:30N 29°49' W 093°20'5 0.1
2018-Apr-21 11:23N 29°45' W 093°21'4 0.1
2018-Apr-20 02:54N 29°49' W 093°21'13 1.1
2018-Apr-19 14:32N 29°38' W 093°30'115.6
2018-Apr-19 14:28N 29°38' W 093°31'815.8
2018-Apr-19 13:59N 29°34' W 093°38'815.6
2018-Apr-19 13:29N 29°29' W 093°45'13 0.6
2018-Apr-18 17:16N 29°29' W 093°31'42 1.5
2018-Apr-17 13:12N 29°08' W 094°12'0 0.0
2018-Apr-17 13:00N 29°08' W 094°12'0 0.0
2018-Apr-17 10:06N 29°08' W 094°12'0 0.0
2018-Apr-17 09:26N 29°08' W 094°12'0 0.0
2018-Apr-17 08:59N 29°08' W 094°12'0 0.3
2018-Apr-17 08:28N 29°08' W 094°12'0 0.2
2018-Apr-17 07:45N 29°08' W 094°12'0 0.0
2018-Apr-17 07:27N 29°08' W 094°12'0 0.0
2018-Apr-17 06:51N 29°08' W 094°12'0 0.0
2018-Apr-17 06:30N 29°08' W 094°12'0 0.0
2018-Apr-17 06:00N 29°08' W 094°12'0 0.2
2018-Apr-17 05:18N 29°08' W 094°12'412.1
2018-Apr-17 05:00N 29°09' W 094°16'30 7.0
2018-Apr-17 00:44N 29°25' W 093°47'314.2
2018-Apr-17 00:30N 29°27' W 093°44'714.1
2018-Apr-17 00:00N 29°32' W 093°38'22 1.0
2018-Apr-16 01:51N 29°48' W 093°21'1 1.0
2018-Apr-16 00:39N 29°49' W 093°20'1 4.4
2018-Apr-16 00:30N 29°49' W 093°21'  

Dump ship's entire track history